createdAt,value
2018-02-21T00:00:55.656Z,78.30
2018-02-21T00:03:21.887Z,78.70
2018-02-21T00:05:48.126Z,78.40
2018-02-21T00:08:14.328Z,79.40
2018-02-21T00:10:40.764Z,79.60
2018-02-21T00:13:07.069Z,78.40
2018-02-21T00:15:33.657Z,78.00
2018-02-21T00:17:59.971Z,78.00
2018-02-21T00:20:26.155Z,77.60
2018-02-21T00:22:52.551Z,77.10
2018-02-21T00:25:18.776Z,76.50
2018-02-21T00:27:45.046Z,77.00
2018-02-21T00:30:12.398Z,77.20
2018-02-21T00:32:39.000Z,77.00
2018-02-21T00:35:05.209Z,77.00
2018-02-21T00:37:31.412Z,77.30
2018-02-21T00:39:57.730Z,77.00
2018-02-21T00:42:23.997Z,77.50
2018-02-21T00:44:50.269Z,77.80
2018-02-21T00:47:16.572Z,78.50
2018-02-21T00:49:42.947Z,79.20
2018-02-21T00:52:09.166Z,78.30
2018-02-21T00:54:35.357Z,78.50
2018-02-21T00:57:01.660Z,77.90
2018-02-21T00:59:27.886Z,77.40
2018-02-21T01:01:54.107Z,77.20
2018-02-21T01:04:20.367Z,77.20
2018-02-21T01:06:46.584Z,77.90
2018-02-21T01:09:12.803Z,78.00
2018-02-21T01:11:39.052Z,78.00
2018-02-21T01:14:05.277Z,77.60
2018-02-21T01:16:31.468Z,77.70
2018-02-21T01:18:57.728Z,77.90
2018-02-21T01:21:24.033Z,77.80
2018-02-21T01:23:50.251Z,76.90
2018-02-21T01:26:16.489Z,76.90
2018-02-21T01:28:43.226Z,77.20
2018-02-21T01:31:10.056Z,77.20
2018-02-21T01:33:36.277Z,76.90
2018-02-21T01:36:02.588Z,76.40
2018-02-21T01:38:28.866Z,75.70
2018-02-21T01:40:55.098Z,75.30
2018-02-21T01:43:21.771Z,75.70
2018-02-21T01:45:47.997Z,75.00
2018-02-21T01:48:14.199Z,75.80
2018-02-21T01:50:51.458Z,75.80
2018-02-21T01:53:17.698Z,76.30
2018-02-21T01:55:43.894Z,76.00
2018-02-21T01:58:10.221Z,75.90
2018-02-21T02:00:36.809Z,76.30
2018-02-21T02:03:02.986Z,76.30
2018-02-21T02:05:29.233Z,75.80
2018-02-21T02:07:55.479Z,75.90
2018-02-21T02:10:21.685Z,76.00
2018-02-21T02:12:47.920Z,75.60
2018-02-21T02:15:14.123Z,76.00
2018-02-21T02:17:40.478Z,76.70
2018-02-21T02:20:06.725Z,76.30
2018-02-21T02:22:32.975Z,76.40
2018-02-21T02:24:59.230Z,76.30
2018-02-21T02:27:25.797Z,76.80
2018-02-21T02:29:51.986Z,76.80
2018-02-21T02:32:18.171Z,76.60
2018-02-21T02:34:44.884Z,76.60
2018-02-21T02:37:11.154Z,76.40
2018-02-21T02:40:02.348Z,76.90
2018-02-21T02:42:28.603Z,76.80
2018-02-21T02:44:54.803Z,77.10
2018-02-21T02:47:21.046Z,77.70
2018-02-21T02:49:47.325Z,78.60
2018-02-21T02:52:13.591Z,78.90
2018-02-21T02:54:39.860Z,78.80
2018-02-21T02:57:06.145Z,78.20
2018-02-21T02:59:32.393Z,78.50
2018-02-21T03:01:58.672Z,78.00
2018-02-21T03:04:24.977Z,78.20
2018-02-21T03:06:51.230Z,78.00
2018-02-21T03:09:17.776Z,77.90
2018-02-21T03:11:44.375Z,77.90
2018-02-21T03:14:10.688Z,77.30
2018-02-21T03:16:36.936Z,77.30
2018-02-21T03:19:03.148Z,77.60
2018-02-21T03:21:29.360Z,77.90
2018-02-21T03:23:55.572Z,78.50
2018-02-21T03:26:21.784Z,78.70
2018-02-21T03:28:48.009Z,78.70
2018-02-21T03:31:14.537Z,78.60
2018-02-21T03:33:40.730Z,78.90
2018-02-21T03:36:06.942Z,77.90
2018-02-21T03:38:33.271Z,78.20
2018-02-21T03:40:59.454Z,78.10
2018-02-21T03:43:25.705Z,78.20
2018-02-21T03:45:51.906Z,78.80
2018-02-21T03:48:18.197Z,78.70
2018-02-21T03:50:44.430Z,78.20
2018-02-21T03:53:11.617Z,78.50
2018-02-21T03:55:37.833Z,79.30
2018-02-21T03:58:04.522Z,78.50
2018-02-21T04:00:30.826Z,78.50
2018-02-21T04:02:57.057Z,78.90
2018-02-21T04:05:23.272Z,79.00
2018-02-21T04:07:49.625Z,79.20
2018-02-21T04:10:15.894Z,79.20
2018-02-21T04:12:43.516Z,79.70
2018-02-21T04:15:09.853Z,79.20
2018-02-21T04:17:36.078Z,78.60
2018-02-21T04:20:02.293Z,79.40
2018-02-21T04:22:28.528Z,79.70
2018-02-21T04:24:54.795Z,78.90
2018-02-21T04:27:21.033Z,77.80
2018-02-21T04:29:47.648Z,78.00
2018-02-21T04:32:13.852Z,78.00
2018-02-21T04:34:40.347Z,78.20
2018-02-21T04:37:06.925Z,77.40
2018-02-21T04:39:33.191Z,77.40
2018-02-21T04:41:59.796Z,77.30
2018-02-21T04:44:26.109Z,77.30
2018-02-21T04:46:52.348Z,77.00
2018-02-21T04:49:18.697Z,77.30
2018-02-21T04:51:45.773Z,77.40
2018-02-21T04:54:12.007Z,76.60
2018-02-21T04:56:40.495Z,77.50
2018-02-21T04:59:24.432Z,77.50
2018-02-21T05:01:51.149Z,77.60
2018-02-21T05:04:17.370Z,77.60
2018-02-21T05:06:43.628Z,77.10
2018-02-21T05:09:09.898Z,77.60
2018-02-21T05:11:36.119Z,77.30
2018-02-21T05:14:02.359Z,77.40
2018-02-21T05:16:28.570Z,76.70
2018-02-21T05:18:55.279Z,76.70
2018-02-21T05:21:21.541Z,76.70
2018-02-21T05:23:47.751Z,76.70
2018-02-21T05:26:14.320Z,76.10
2018-02-21T05:28:40.746Z,76.10
2018-02-21T05:31:06.952Z,76.20
2018-02-21T05:33:33.174Z,75.70
2018-02-21T05:35:59.428Z,75.20
2018-02-21T05:38:25.811Z,76.20
2018-02-21T05:40:52.032Z,75.60
2018-02-21T05:43:18.259Z,75.40
2018-02-21T05:45:44.566Z,75.70
2018-02-21T05:48:10.907Z,75.80
2018-02-21T05:50:37.122Z,76.40
2018-02-21T05:53:03.399Z,75.70
2018-02-21T05:55:29.649Z,75.60
2018-02-21T05:57:55.904Z,75.70
2018-02-21T06:00:22.120Z,76.00
2018-02-21T06:02:48.326Z,76.00
2018-02-21T06:05:14.599Z,76.00
2018-02-21T06:07:56.215Z,76.10
2018-02-21T06:10:22.865Z,75.90
2018-02-21T06:12:49.454Z,76.70
2018-02-21T06:15:15.681Z,76.70
2018-02-21T06:17:41.989Z,76.70
2018-02-21T06:20:08.339Z,77.40
2018-02-21T06:22:35.159Z,76.70
2018-02-21T06:25:01.507Z,75.70
2018-02-21T06:27:28.108Z,75.80
2018-02-21T06:29:54.326Z,75.80
2018-02-21T06:32:21.033Z,76.50
2018-02-21T06:34:47.307Z,76.40
2018-02-21T06:37:13.612Z,76.30
2018-02-21T06:39:40.168Z,76.40
2018-02-21T06:42:06.412Z,76.30
2018-02-21T06:44:32.985Z,76.30
2018-02-21T06:46:59.230Z,76.40
2018-02-21T06:49:25.416Z,75.00
2018-02-21T06:51:51.638Z,74.50
2018-02-21T06:54:17.851Z,74.80
2018-02-21T06:56:44.208Z,75.00
2018-02-21T06:59:10.435Z,76.40
2018-02-21T07:01:36.730Z,76.30
2018-02-21T07:04:02.962Z,76.10
2018-02-21T07:06:29.187Z,75.70
2018-02-21T07:08:55.383Z,75.20
2018-02-21T07:11:22.112Z,76.10
2018-02-21T07:13:48.302Z,76.10
2018-02-21T07:16:14.539Z,76.00
2018-02-21T07:18:40.851Z,76.20
2018-02-21T07:21:07.084Z,75.60
2018-02-21T07:23:33.280Z,75.70
2018-02-21T07:25:59.551Z,75.10
2018-02-21T07:28:25.775Z,75.50
2018-02-21T07:30:51.958Z,74.90
2018-02-21T07:33:18.173Z,74.00
2018-02-21T07:35:44.478Z,73.40
2018-02-21T07:38:11.425Z,74.00
2018-02-21T07:40:37.804Z,73.50
2018-02-21T07:43:04.476Z,73.50
2018-02-21T07:45:30.753Z,73.50
2018-02-21T07:47:57.040Z,73.10
2018-02-21T07:50:23.360Z,72.30
2018-02-21T07:52:49.628Z,73.00
2018-02-21T07:55:15.843Z,72.40
2018-02-21T07:57:42.131Z,71.60
2018-02-21T08:00:08.484Z,70.60
2018-02-21T08:02:34.740Z,71.60
2018-02-21T08:05:01.007Z,70.80
2018-02-21T08:07:27.235Z,71.50
2018-02-21T08:09:53.476Z,70.60
2018-02-21T08:12:19.707Z,71.00
2018-02-21T08:14:45.883Z,70.00
2018-02-21T08:17:12.109Z,70.00
2018-02-21T08:19:38.885Z,69.90
2018-02-21T08:22:05.139Z,69.70
2018-02-21T08:24:31.353Z,70.00
2018-02-21T08:26:58.344Z,70.00
2018-02-21T08:29:24.561Z,69.90
2018-02-21T08:31:50.751Z,70.10
2018-02-21T08:34:16.999Z,69.50
2018-02-21T08:36:43.223Z,69.50
2018-02-21T08:39:09.410Z,70.70
2018-02-21T08:41:36.265Z,69.10
2018-02-21T08:44:02.902Z,68.80
2018-02-21T08:46:29.104Z,68.80
2018-02-21T08:48:55.584Z,68.90
2018-02-21T08:51:21.817Z,69.30
2018-02-21T08:53:48.043Z,69.00
2018-02-21T08:56:14.274Z,69.30
2018-02-21T08:58:40.556Z,70.10
2018-02-21T09:01:07.156Z,69.70
2018-02-21T09:03:33.466Z,69.70
2018-02-21T09:05:59.676Z,69.20
2018-02-21T09:08:25.917Z,68.80
2018-02-21T09:10:52.493Z,67.90
2018-02-21T09:13:18.685Z,66.90
2018-02-21T09:15:44.999Z,67.30
2018-02-21T09:18:11.826Z,68.10
2018-02-21T09:20:38.082Z,67.40
2018-02-21T09:23:04.260Z,66.80
2018-02-21T09:25:30.523Z,66.70
2018-02-21T09:27:56.819Z,67.30
2018-02-21T09:30:23.094Z,68.10
2018-02-21T09:32:49.356Z,68.80
2018-02-21T09:35:15.598Z,67.70
2018-02-21T09:37:41.838Z,67.90
2018-02-21T09:40:08.352Z,68.00
2018-02-21T09:42:34.655Z,67.50
2018-02-21T09:45:00.865Z,66.30
2018-02-21T09:47:27.066Z,66.40
2018-02-21T09:49:53.776Z,67.10
2018-02-21T09:52:19.975Z,67.10
2018-02-21T09:54:46.590Z,66.80
2018-02-21T09:57:13.029Z,66.60
2018-02-21T09:59:39.327Z,67.00
2018-02-21T10:02:05.588Z,67.70
2018-02-21T10:04:31.802Z,66.60
2018-02-21T10:06:58.117Z,65.90
2018-02-21T10:09:25.026Z,66.20
2018-02-21T10:11:51.252Z,66.20
2018-02-21T10:14:17.483Z,66.50
2018-02-21T10:16:43.741Z,66.60
2018-02-21T10:19:09.948Z,66.00
2018-02-21T10:21:36.196Z,65.90
2018-02-21T10:24:02.489Z,65.70
2018-02-21T10:26:28.792Z,65.40
2018-02-21T10:28:55.014Z,64.70
2018-02-21T10:31:21.233Z,65.60
2018-02-21T10:33:47.540Z,64.80
2018-02-21T10:36:13.797Z,64.60
2018-02-21T10:38:40.120Z,65.70
2018-02-21T10:41:06.344Z,65.80
2018-02-21T10:43:32.991Z,67.20
2018-02-21T10:45:59.631Z,64.70
2018-02-21T10:48:25.895Z,64.70
2018-02-21T10:50:52.124Z,63.10
2018-02-21T10:53:18.344Z,62.70
2018-02-21T10:55:44.612Z,61.70
2018-02-21T10:58:11.400Z,61.30
2018-02-21T11:00:43.744Z,62.10
2018-02-21T11:03:10.386Z,62.70
2018-02-21T11:05:36.664Z,62.70
2018-02-21T11:08:02.882Z,63.20
2018-02-21T11:10:29.107Z,63.20
2018-02-21T11:12:55.368Z,63.00
2018-02-21T11:15:21.631Z,62.90
2018-02-21T11:17:47.856Z,62.80
2018-02-21T11:20:14.495Z,61.70
2018-02-21T11:22:40.764Z,61.70
2018-02-21T11:25:07.420Z,60.70
2018-02-21T11:27:33.634Z,60.70
2018-02-21T11:29:59.829Z,60.40
2018-02-21T11:32:26.155Z,61.10
2018-02-21T11:34:52.471Z,61.00
2018-02-21T11:37:18.750Z,60.50
2018-02-21T11:39:45.005Z,61.50
2018-02-21T11:42:11.862Z,61.50
2018-02-21T11:44:38.579Z,61.30
2018-02-21T11:47:05.075Z,61.30
2018-02-21T11:49:31.274Z,62.00
2018-02-21T11:51:57.455Z,61.30
2018-02-21T11:54:23.704Z,60.70
2018-02-21T11:56:49.986Z,61.80
2018-02-21T11:59:16.300Z,62.00
2018-02-21T12:01:42.575Z,62.10
2018-02-21T12:04:08.836Z,61.40
2018-02-21T12:06:35.029Z,61.00
2018-02-21T12:09:01.229Z,61.10
2018-02-21T12:11:28.459Z,61.30
2018-02-21T12:13:54.676Z,58.70
2018-02-21T12:16:21.344Z,56.30
2018-02-21T12:18:47.565Z,56.30
2018-02-21T12:21:13.771Z,54.50
2018-02-21T12:23:40.984Z,48.30
2018-02-21T12:26:07.287Z,48.30
2018-02-21T12:28:33.509Z,47.30
2018-02-21T12:30:59.860Z,46.70
2018-02-21T12:33:26.104Z,47.80
2018-02-21T12:35:52.355Z,48.60
2018-02-21T12:38:18.943Z,45.90
2018-02-21T12:40:51.374Z,45.90
2018-02-21T12:43:18.026Z,44.80
2018-02-21T12:45:44.289Z,44.80
2018-02-21T12:48:10.877Z,45.00
2018-02-21T12:50:37.499Z,45.80
2018-02-21T12:53:03.801Z,45.80
2018-02-21T12:55:30.032Z,45.60
2018-02-21T12:57:56.299Z,45.50
2018-02-21T13:00:22.957Z,44.20
2018-02-21T13:02:49.196Z,44.20
2018-02-21T13:05:15.508Z,42.70
2018-02-21T13:07:41.780Z,41.40
2018-02-21T13:10:08.032Z,40.60
2018-02-21T13:12:34.254Z,40.20
2018-02-21T13:15:00.504Z,38.30
2018-02-21T13:17:26.737Z,37.40
2018-02-21T13:19:52.968Z,38.50
2018-02-21T13:22:19.198Z,37.20
2018-02-21T13:24:45.410Z,37.50
2018-02-21T13:27:11.716Z,37.40
2018-02-21T13:29:37.920Z,38.00
2018-02-21T13:32:04.441Z,39.00
2018-02-21T13:34:30.695Z,38.80
2018-02-21T13:36:56.925Z,39.50
2018-02-21T13:39:23.604Z,40.30
2018-02-21T13:41:49.963Z,40.40
2018-02-21T13:44:16.223Z,41.00
2018-02-21T13:46:42.473Z,42.10
2018-02-21T13:49:08.725Z,41.90
2018-02-21T13:51:34.981Z,43.10
2018-02-21T13:54:01.252Z,44.30
2018-02-21T13:56:27.769Z,44.20
2018-02-21T13:58:54.058Z,45.40
2018-02-21T14:01:20.283Z,46.00
2018-02-21T14:03:47.018Z,46.30
2018-02-21T14:06:13.660Z,46.00
2018-02-21T14:08:40.297Z,46.00
2018-02-21T14:11:06.533Z,46.00
2018-02-21T14:13:32.818Z,46.60
2018-02-21T14:15:59.111Z,46.30
2018-02-21T14:18:25.820Z,46.80
2018-02-21T14:20:52.514Z,45.70
2018-02-21T14:23:18.802Z,45.70
2018-02-21T14:25:45.041Z,45.70
2018-02-21T14:28:12.341Z,47.10
2018-02-21T14:30:38.746Z,47.10
2018-02-21T14:33:04.958Z,48.10
2018-02-21T14:35:31.206Z,47.50
2018-02-21T14:37:57.485Z,48.10
2018-02-21T14:40:24.058Z,48.90
2018-02-21T14:42:50.248Z,49.00
2018-02-21T14:45:16.537Z,48.20
2018-02-21T14:47:42.797Z,48.00
2018-02-21T14:50:09.380Z,48.70
2018-02-21T14:52:35.647Z,48.70
2018-02-21T14:55:01.917Z,48.20
2018-02-21T14:57:28.179Z,48.80
2018-02-21T14:59:54.461Z,49.70
2018-02-21T15:02:20.796Z,49.00
2018-02-21T15:04:47.036Z,49.60
2018-02-21T15:07:13.428Z,50.40
2018-02-21T15:09:39.684Z,50.40
2018-02-21T15:12:05.901Z,50.10
2018-02-21T15:14:32.514Z,51.70
2018-02-21T15:16:58.752Z,51.70
2018-02-21T15:19:24.991Z,52.40
2018-02-21T15:21:51.595Z,52.10
2018-02-21T15:24:18.110Z,52.10
2018-02-21T15:26:44.361Z,53.00
2018-02-21T15:29:10.808Z,53.40
2018-02-21T15:31:37.384Z,52.60
2018-02-21T15:34:03.645Z,52.90
2018-02-21T15:36:29.874Z,53.70
2018-02-21T15:38:56.432Z,54.50
2018-02-21T15:41:22.702Z,55.10
2018-02-21T15:43:48.969Z,54.80
2018-02-21T15:46:15.236Z,54.80
2018-02-21T15:48:41.549Z,56.30
2018-02-21T15:51:07.802Z,55.70
2018-02-21T15:53:34.412Z,56.70
2018-02-21T15:56:00.674Z,56.70
2018-02-21T15:58:27.290Z,58.80
2018-02-21T16:00:53.864Z,59.40
2018-02-21T16:03:20.173Z,59.40
2018-02-21T16:05:46.813Z,60.20
2018-02-21T16:08:13.459Z,61.30
2018-02-21T16:10:39.706Z,61.20
2018-02-21T16:13:05.927Z,60.30
2018-02-21T16:15:32.398Z,60.60
2018-02-21T16:17:58.627Z,62.30
2018-02-21T16:20:24.883Z,62.10
2018-02-21T16:22:51.115Z,61.80
2018-02-21T16:25:17.365Z,62.90
2018-02-21T16:27:43.575Z,62.20
2018-02-21T16:30:09.900Z,62.80
2018-02-21T16:32:36.554Z,63.80
2018-02-21T16:35:02.791Z,63.80
2018-02-21T16:37:29.423Z,65.10
2018-02-21T16:39:55.734Z,64.70
2018-02-21T16:42:21.943Z,65.90
2018-02-21T16:44:48.255Z,65.50
2018-02-21T16:47:14.529Z,64.50
2018-02-21T16:49:41.185Z,66.60
2018-02-21T16:52:07.413Z,66.50
2018-02-21T16:54:33.655Z,66.70
2018-02-21T16:56:59.909Z,66.90
2018-02-21T16:59:26.137Z,68.10
2018-02-21T17:01:52.409Z,68.60
2018-02-21T17:04:19.108Z,68.70
2018-02-21T17:06:45.744Z,68.40
2018-02-21T17:09:12.103Z,68.40
2018-02-21T17:11:38.478Z,69.30
2018-02-21T17:14:04.753Z,69.90
2018-02-21T17:16:30.937Z,70.20
2018-02-21T17:18:57.200Z,70.10
2018-02-21T17:21:23.545Z,70.90
2018-02-21T17:23:50.130Z,70.50
2018-02-21T17:26:16.811Z,70.50
2018-02-21T17:28:43.208Z,71.10
2018-02-21T17:31:09.456Z,70.20
2018-02-21T17:33:35.992Z,70.30
2018-02-21T17:36:02.288Z,70.70
2018-02-21T17:38:28.492Z,71.70
2018-02-21T17:41:00.716Z,72.20
2018-02-21T17:43:26.942Z,72.80
2018-02-21T17:45:53.159Z,72.50
2018-02-21T17:48:19.392Z,73.20
2018-02-21T17:50:45.588Z,72.70
2018-02-21T17:53:11.810Z,72.40
2018-02-21T17:55:38.055Z,72.20
2018-02-21T17:58:04.345Z,72.10
2018-02-21T18:00:31.009Z,71.90
2018-02-21T18:02:57.271Z,71.90
2018-02-21T18:05:23.500Z,72.30
2018-02-21T18:07:49.790Z,72.30
2018-02-21T18:10:16.002Z,72.80
2018-02-21T18:12:42.325Z,72.70
2018-02-21T18:15:08.917Z,73.00
2018-02-21T18:17:35.166Z,73.00
2018-02-21T18:20:01.419Z,73.00
2018-02-21T18:22:28.315Z,73.90
2018-02-21T18:24:54.545Z,73.90
2018-02-21T18:27:27.783Z,74.20
2018-02-21T18:29:54.756Z,74.30
2018-02-21T18:32:21.088Z,74.30
2018-02-21T18:34:47.320Z,73.90
2018-02-21T18:37:13.588Z,74.10
2018-02-21T18:39:39.848Z,74.50
2018-02-21T18:42:06.913Z,74.10
2018-02-21T18:44:33.187Z,74.10
2018-02-21T18:47:00.272Z,74.50
2018-02-21T18:49:26.556Z,74.60
2018-02-21T18:51:53.140Z,74.40
2018-02-21T18:54:19.471Z,75.10
2018-02-21T18:56:46.095Z,74.80
2018-02-21T18:59:12.487Z,74.80
2018-02-21T19:01:39.607Z,74.80
2018-02-21T19:04:05.923Z,74.50
2018-02-21T19:06:32.210Z,74.40
2018-02-21T19:08:58.461Z,75.00
2018-02-21T19:11:25.341Z,74.30
2018-02-21T19:13:51.712Z,74.30
2018-02-21T19:16:18.822Z,73.90
2018-02-21T19:18:45.091Z,73.40
2018-02-21T19:21:18.307Z,73.50
2018-02-21T19:23:44.691Z,73.50
2018-02-21T19:26:11.003Z,73.30
2018-02-21T19:28:37.260Z,72.70
2018-02-21T19:31:03.786Z,73.00
2018-02-21T19:33:30.038Z,72.50
2018-02-21T19:35:56.304Z,72.30
2018-02-21T19:38:22.884Z,72.70
2018-02-21T19:40:49.158Z,73.40
2018-02-21T19:43:15.790Z,72.80
2018-02-21T19:45:42.063Z,72.80
2018-02-21T19:48:08.324Z,72.70
2018-02-21T19:50:34.544Z,72.70
2018-02-21T19:53:00.876Z,73.20
2018-02-21T19:55:27.071Z,73.20
2018-02-21T19:57:53.313Z,72.90
2018-02-21T20:00:19.593Z,73.10
2018-02-21T20:02:45.822Z,73.70
2018-02-21T20:05:12.149Z,74.20
2018-02-21T20:07:38.446Z,73.50
2018-02-21T20:10:04.712Z,73.90
2018-02-21T20:12:31.005Z,73.30
2018-02-21T20:14:57.396Z,73.50
2018-02-21T20:17:23.569Z,73.20
2018-02-21T20:19:49.794Z,72.60
2018-02-21T20:22:16.041Z,72.30
2018-02-21T20:24:42.365Z,72.00
2018-02-21T20:27:08.579Z,72.10
2018-02-21T20:29:34.846Z,71.70
2018-02-21T20:32:01.082Z,71.30
2018-02-21T20:34:27.646Z,71.70
2018-02-21T20:36:53.901Z,71.90
2018-02-21T20:39:20.169Z,71.90
2018-02-21T20:41:46.879Z,71.30
2018-02-21T20:44:13.126Z,71.60
2018-02-21T20:46:39.414Z,70.20
2018-02-21T20:49:05.676Z,69.50
2018-02-21T20:51:32.170Z,68.90
2018-02-21T20:53:58.425Z,69.30
2018-02-21T20:56:24.699Z,68.80
2018-02-21T20:58:51.300Z,69.50
2018-02-21T21:01:17.631Z,69.50
2018-02-21T21:03:44.187Z,69.20
2018-02-21T21:06:12.944Z,69.70
2018-02-21T21:08:39.170Z,69.70
2018-02-21T21:11:05.422Z,70.70
2018-02-21T21:13:31.705Z,70.80
2018-02-21T21:15:58.028Z,70.80
2018-02-21T21:18:24.282Z,71.30
2018-02-21T21:20:50.649Z,71.80
2018-02-21T21:23:17.335Z,72.40
2018-02-21T21:25:43.711Z,72.40
2018-02-21T21:28:09.965Z,72.00
2018-02-21T21:30:36.226Z,71.50
2018-02-21T21:33:02.461Z,71.40
2018-02-21T21:35:28.712Z,71.60
2018-02-21T21:37:54.966Z,70.70
2018-02-21T21:40:21.665Z,70.50
2018-02-21T21:42:47.950Z,70.50
2018-02-21T21:45:14.613Z,70.20
2018-02-21T21:47:41.901Z,70.20
2018-02-21T21:50:08.231Z,70.40
2018-02-21T21:52:34.489Z,71.00
2018-02-21T21:55:01.061Z,70.20
2018-02-21T21:57:27.335Z,70.20
2018-02-21T21:59:53.547Z,69.90
2018-02-21T22:02:19.756Z,69.70
2018-02-21T22:04:46.041Z,69.80
2018-02-21T22:07:12.770Z,69.60
2018-02-21T22:09:39.065Z,69.60
2018-02-21T22:12:05.287Z,69.50
2018-02-21T22:14:31.502Z,69.10
2018-02-21T22:16:57.767Z,69.40
2018-02-21T22:19:23.992Z,69.50
2018-02-21T22:21:50.256Z,69.50
2018-02-21T22:24:17.135Z,69.70
2018-02-21T22:26:43.347Z,69.70
2018-02-21T22:29:09.595Z,69.40
2018-02-21T22:31:35.859Z,69.10
2018-02-21T22:34:02.081Z,69.20
2018-02-21T22:36:28.318Z,69.60
2018-02-21T22:38:55.035Z,69.10
2018-02-21T22:41:21.253Z,69.20
2018-02-21T22:43:47.453Z,69.20
2018-02-21T22:46:13.702Z,69.10
2018-02-21T22:48:39.958Z,69.00
2018-02-21T22:51:06.161Z,69.00
2018-02-21T22:53:32.394Z,69.00
2018-02-21T22:55:58.637Z,69.00
2018-02-21T22:58:24.874Z,69.00
2018-02-21T23:00:51.076Z,68.80
2018-02-21T23:03:17.706Z,69.10
2018-02-21T23:05:43.938Z,69.30
2018-02-21T23:08:10.267Z,69.70
2018-02-21T23:10:36.512Z,69.80
2018-02-21T23:13:02.758Z,69.60
2018-02-21T23:15:29.035Z,69.70
2018-02-21T23:17:55.245Z,70.40
2018-02-21T23:20:21.556Z,71.00
2018-02-21T23:22:48.160Z,70.70
2018-02-21T23:25:14.370Z,70.70
2018-02-21T23:27:41.264Z,70.20
2018-02-21T23:30:07.835Z,69.80
2018-02-21T23:32:34.128Z,69.90
2018-02-21T23:35:00.761Z,69.70
2018-02-21T23:37:27.340Z,70.30
2018-02-21T23:39:53.546Z,70.30
2018-02-21T23:42:19.943Z,69.70
2018-02-21T23:44:46.159Z,69.80
2018-02-21T23:47:12.366Z,69.10
2018-02-21T23:49:38.617Z,69.60
2018-02-21T23:52:04.854Z,69.10
2018-02-21T23:54:31.037Z,69.30
2018-02-21T23:56:57.275Z,69.80
2018-02-21T23:59:23.858Z,70.30
